Pine City, Minnesota
Current Conditions -  °F | °C
As of 11:55 PM on Saturday 22 Nov 2014 (Local Time) from KROS Reporting Station
Haze Haze  
Wind Chill: 32°   Ceiling: 200
Heat Index: 37°   Visibility: 2mi
Dew Point: 36°   Wind: 6mph
Humidity: 97%   Direction: 150°SSE
Pressure: 29.5"   Gusts: NA
Location:  45.83°N, 92.97°W
Report Text: KROS 230555Z AUTO 15005KT 2SM BR OVC002 03/02 A2950 RMK AO2 T00270022 10027 20008 400271020
Loading
Personal Weather Stations






























Interactive Weather Map New forecast layout! Learn more

10-Day Weather Forecast

Advertisements
Track Severe Weather on mobile